createdAt,value
2023-12-11T00:01:13.646Z,40.10
2023-12-11T00:03:41.937Z,36.10
2023-12-11T00:06:10.495Z,45.30
2023-12-11T00:08:38.337Z,39.47
2023-12-11T00:11:06.690Z,38.47
2023-12-11T00:13:34.627Z,47.38
2023-12-11T00:16:03.951Z,48.28
2023-12-11T00:18:32.208Z,38.87
2023-12-11T00:21:02.409Z,46.33
2023-12-11T00:23:30.545Z,43.73
2023-12-11T00:25:58.832Z,50.80
2023-12-11T00:28:27.148Z,47.50
2023-12-11T00:30:55.011Z,55.20
2023-12-11T00:33:25.911Z,55.67
2023-12-11T00:35:53.867Z,44.03
2023-12-11T00:38:21.996Z,51.78
2023-12-11T00:40:49.910Z,43.83
2023-12-11T00:43:18.030Z,50.53
2023-12-11T00:45:46.129Z,42.95
2023-12-11T00:48:14.712Z,53.53
2023-12-11T00:50:44.523Z,55.22
2023-12-11T00:53:12.640Z,46.93
2023-12-11T00:55:40.672Z,55.78
2023-12-11T00:58:08.547Z,50.78
2023-12-11T01:00:36.508Z,54.55
2023-12-11T01:03:05.043Z,55.55
2023-12-11T01:05:33.223Z,53.38
2023-12-11T01:08:02.502Z,44.17
2023-12-11T01:10:30.602Z,52.23
2023-12-11T01:12:58.517Z,40.65
2023-12-11T01:15:26.842Z,45.78
2023-12-11T01:17:55.029Z,41.53
2023-12-11T01:20:23.246Z,53.65
2023-12-11T01:22:51.205Z,49.53
2023-12-11T01:25:20.602Z,53.75
2023-12-11T01:27:48.535Z,48.80
2023-12-11T01:30:16.592Z,48.40
2023-12-11T01:32:44.529Z,47.33
2023-12-11T01:35:12.468Z,41.22
2023-12-11T01:37:40.433Z,44.00
2023-12-11T01:40:10.191Z,48.53
2023-12-11T01:42:39.553Z,53.70
2023-12-11T01:45:08.417Z,42.83
2023-12-11T01:47:36.521Z,55.33
2023-12-11T01:50:04.726Z,54.53
2023-12-11T01:52:32.747Z,50.03
2023-12-11T01:55:00.841Z,42.05
2023-12-11T01:57:28.977Z,42.17
2023-12-11T01:59:59.000Z,45.72
2023-12-11T02:02:27.072Z,51.17
2023-12-11T02:04:55.425Z,44.95
2023-12-11T02:07:23.616Z,62.70
2023-12-11T02:09:51.718Z,56.72
2023-12-11T02:12:19.702Z,53.40
2023-12-11T02:14:47.571Z,42.88
2023-12-11T02:17:16.959Z,56.13
2023-12-11T02:19:44.921Z,59.30
2023-12-11T02:22:13.216Z,58.03
2023-12-11T02:24:49.404Z,52.92
2023-12-11T02:27:18.783Z,62.87
2023-12-11T02:29:46.702Z,46.73
2023-12-11T02:32:17.826Z,52.10
2023-12-11T02:34:48.828Z,52.67
2023-12-11T02:37:17.076Z,49.73
2023-12-11T02:39:46.706Z,45.67
2023-12-11T02:42:14.734Z,58.57
2023-12-11T02:44:43.984Z,45.00
2023-12-11T02:47:11.925Z,49.00
2023-12-11T02:49:40.114Z,52.13
2023-12-11T02:52:08.340Z,56.63
2023-12-11T02:54:36.272Z,52.63
2023-12-11T02:57:04.230Z,55.55
2023-12-11T02:59:32.308Z,53.67
2023-12-11T03:02:01.644Z,49.95
2023-12-11T03:04:29.942Z,46.93
2023-12-11T03:06:58.017Z,47.55
2023-12-11T03:09:25.931Z,45.53
2023-12-11T03:11:55.150Z,43.72
2023-12-11T03:14:22.956Z,47.80
2023-12-11T03:16:50.919Z,57.13
2023-12-11T03:19:20.307Z,46.55
2023-12-11T03:21:48.314Z,50.70
2023-12-11T03:24:16.228Z,41.97
2023-12-11T03:26:44.179Z,45.47
2023-12-11T03:29:12.294Z,46.65
2023-12-11T03:31:40.934Z,39.72
2023-12-11T03:34:08.985Z,37.85
2023-12-11T03:36:38.416Z,46.00
2023-12-11T03:39:08.720Z,50.97
2023-12-11T03:41:36.648Z,38.50
2023-12-11T03:44:04.685Z,41.35
2023-12-11T03:46:32.552Z,51.22
2023-12-11T03:49:00.549Z,44.00
2023-12-11T03:51:28.451Z,34.72
2023-12-11T03:53:58.322Z,41.88
2023-12-11T03:56:26.553Z,44.40
2023-12-11T03:58:54.498Z,38.30
2023-12-11T04:01:22.737Z,39.22
2023-12-11T04:03:50.805Z,36.25
2023-12-11T04:06:18.891Z,34.58
2023-12-11T04:08:46.770Z,47.88
2023-12-11T04:11:16.089Z,40.08
2023-12-11T04:13:43.991Z,49.20
2023-12-11T04:16:11.998Z,37.13
2023-12-11T04:18:40.757Z,51.55
2023-12-11T04:21:09.508Z,48.20
2023-12-11T04:26:06.237Z,42.30
2023-12-11T04:28:35.513Z,38.55
2023-12-11T04:31:03.518Z,35.33
2023-12-11T04:33:34.185Z,37.15
2023-12-11T04:36:02.249Z,37.03
2023-12-11T04:38:30.479Z,47.17
2023-12-11T04:40:58.824Z,35.47
2023-12-11T04:43:29.128Z,39.83
2023-12-11T04:46:01.037Z,34.83
2023-12-11T04:48:30.271Z,41.43
2023-12-11T04:50:58.233Z,41.77
2023-12-11T04:53:26.152Z,47.15
2023-12-11T04:55:54.223Z,37.72
2023-12-11T04:58:22.486Z,42.42
2023-12-11T05:00:50.600Z,37.20
2023-12-11T05:03:20.129Z,35.92
2023-12-11T05:05:48.139Z,44.70
2023-12-11T05:08:16.067Z,42.30
2023-12-11T05:10:44.262Z,41.75
2023-12-11T05:13:12.348Z,48.92
2023-12-11T05:15:40.354Z,36.85
2023-12-11T05:18:08.472Z,45.17
2023-12-11T05:20:37.802Z,44.60
2023-12-11T05:23:06.014Z,47.40
2023-12-11T05:25:34.042Z,41.63
2023-12-11T05:28:01.992Z,48.28
2023-12-11T05:30:30.147Z,57.40
2023-12-11T05:32:58.434Z,45.80
2023-12-11T05:35:26.721Z,58.55
2023-12-11T05:37:59.710Z,43.20
2023-12-11T05:40:28.024Z,34.37
2023-12-11T05:42:55.913Z,34.15
2023-12-11T05:45:23.930Z,42.35
2023-12-11T05:47:51.854Z,36.15
2023-12-11T05:50:20.594Z,40.35
2023-12-11T05:52:48.899Z,26.73
2023-12-11T05:55:18.995Z,27.35
2023-12-11T05:57:48.732Z,42.43
2023-12-11T06:00:17.881Z,22.80
2023-12-11T06:05:14.204Z,27.15
2023-12-11T06:07:42.346Z,24.85
2023-12-11T06:10:10.504Z,23.77
2023-12-11T06:12:39.834Z,28.15
2023-12-11T06:15:08.612Z,28.00
2023-12-11T06:20:06.074Z,28.13
2023-12-11T06:22:34.405Z,27.47
2023-12-11T06:25:03.474Z,23.77
2023-12-11T06:27:31.947Z,29.07
2023-12-11T06:30:01.524Z,23.63
2023-12-11T06:32:29.828Z,31.93
2023-12-11T06:34:57.846Z,38.60
2023-12-11T06:37:25.866Z,31.23
2023-12-11T06:39:54.202Z,28.60
2023-12-11T06:42:22.085Z,25.77
2023-12-11T06:44:50.309Z,30.13
2023-12-11T06:47:19.679Z,29.42
2023-12-11T06:49:48.194Z,29.47
2023-12-11T06:52:16.992Z,21.80
2023-12-11T06:54:45.165Z,30.03
2023-12-11T06:57:13.238Z,24.27
2023-12-11T06:59:41.130Z,23.98
2023-12-11T07:02:09.225Z,18.20
2023-12-11T07:04:39.216Z,27.20
2023-12-11T07:07:08.109Z,30.03
2023-12-11T07:12:05.391Z,20.15
2023-12-11T07:14:33.315Z,29.83
2023-12-11T07:17:01.301Z,21.83
2023-12-11T07:19:29.590Z,21.02
2023-12-11T07:21:58.986Z,30.02
2023-12-11T07:24:26.882Z,30.10
2023-12-11T07:26:54.743Z,37.05
2023-12-11T07:29:23.534Z,23.25
2023-12-11T07:34:23.040Z,20.27
2023-12-11T07:36:52.763Z,22.93
2023-12-11T07:39:22.128Z,14.73
2023-12-11T07:41:49.982Z,18.77
2023-12-11T07:44:17.881Z,18.53
2023-12-11T07:46:45.767Z,16.70
2023-12-11T07:49:15.302Z,22.08
2023-12-11T07:51:44.406Z,17.70
2023-12-11T07:54:13.385Z,19.87
2023-12-11T07:59:13.115Z,24.23
2023-12-11T08:01:41.142Z,27.23
2023-12-11T08:04:09.446Z,23.27
2023-12-11T08:06:41.991Z,28.88
2023-12-11T08:09:10.300Z,31.97
2023-12-11T08:11:38.505Z,25.40
2023-12-11T08:14:07.773Z,24.92
2023-12-11T08:16:35.770Z,30.40
2023-12-11T08:19:04.023Z,35.05
2023-12-11T08:21:32.151Z,26.17
2023-12-11T08:24:00.360Z,24.30
2023-12-11T08:26:28.281Z,28.77
2023-12-11T08:28:59.069Z,26.38
2023-12-11T08:31:29.639Z,26.53
2023-12-11T08:33:57.633Z,33.83
2023-12-11T08:36:25.572Z,26.23
2023-12-11T08:38:53.805Z,31.38
2023-12-11T08:41:21.657Z,28.58
2023-12-11T08:43:49.499Z,39.30
2023-12-11T08:46:17.506Z,28.90
2023-12-11T08:48:47.393Z,20.67
2023-12-11T08:51:15.453Z,29.40
2023-12-11T08:53:43.347Z,32.03
2023-12-11T08:56:12.001Z,28.50
2023-12-11T08:58:40.148Z,31.53
2023-12-11T09:01:08.306Z,34.40
2023-12-11T09:03:36.317Z,31.27
2023-12-11T09:06:06.269Z,34.67
2023-12-11T09:08:34.192Z,34.23
2023-12-11T09:11:02.079Z,26.02
2023-12-11T09:13:30.524Z,31.25
2023-12-11T09:15:58.669Z,24.15
2023-12-11T09:18:27.063Z,31.30
2023-12-11T09:20:55.102Z,46.50
2023-12-11T09:23:24.415Z,36.35
2023-12-11T09:25:52.461Z,32.90
2023-12-11T09:28:20.454Z,30.77
2023-12-11T09:30:48.855Z,21.15
2023-12-11T09:33:16.852Z,23.52
2023-12-11T09:35:45.280Z,23.20
2023-12-11T09:38:13.301Z,27.50
2023-12-11T09:40:42.673Z,28.40
2023-12-11T09:43:11.110Z,30.17
2023-12-11T09:45:40.371Z,26.13
2023-12-11T09:48:14.434Z,23.00
2023-12-11T09:50:43.495Z,31.77
2023-12-11T09:53:12.115Z,26.00
2023-12-11T09:55:39.988Z,37.20
2023-12-11T09:58:10.310Z,26.83
2023-12-11T10:00:38.568Z,33.40
2023-12-11T10:03:09.327Z,34.47
2023-12-11T10:05:38.513Z,30.53
2023-12-11T10:08:06.747Z,30.20
2023-12-11T10:10:35.332Z,30.20
2023-12-11T10:15:34.742Z,20.83
2023-12-11T10:18:08.339Z,26.10
2023-12-11T10:20:37.889Z,20.03
2023-12-11T10:23:24.552Z,15.87
2023-12-11T10:25:54.888Z,17.00
2023-12-11T10:28:24.996Z,22.47
2023-12-11T10:30:56.525Z,20.97
2023-12-11T10:33:26.442Z,22.60
2023-12-11T10:35:55.491Z,18.47
2023-12-11T10:40:54.202Z,15.98
2023-12-11T10:43:22.407Z,20.80
2023-12-11T10:45:52.084Z,20.13
2023-12-11T10:48:23.213Z,15.57
2023-12-11T10:50:51.870Z,24.70
2023-12-11T10:53:20.232Z,18.52
2023-12-11T10:55:49.220Z,17.45
2023-12-11T10:58:17.576Z,22.93
2023-12-11T11:00:47.577Z,17.35
2023-12-11T11:03:15.996Z,16.17
2023-12-11T11:05:45.862Z,23.73
2023-12-11T11:08:25.889Z,13.30
2023-12-11T11:10:59.165Z,17.73
2023-12-11T11:13:33.348Z,15.73
2023-12-11T11:16:01.566Z,19.97
2023-12-11T11:18:29.725Z,16.17
2023-12-11T11:21:12.219Z,15.73
2023-12-11T11:23:44.700Z,12.17
2023-12-11T11:26:34.698Z,14.20
2023-12-11T11:29:02.688Z,15.23
2023-12-11T11:31:52.247Z,9.95
2023-12-11T11:34:45.487Z,10.83
2023-12-11T11:37:18.828Z,15.83
2023-12-11T11:40:05.682Z,7.73
2023-12-11T11:42:36.596Z,12.57
2023-12-11T11:45:06.474Z,14.20
2023-12-11T11:47:35.683Z,13.60
2023-12-11T11:50:08.622Z,9.63
2023-12-11T11:52:40.327Z,9.17
2023-12-11T11:55:13.519Z,8.20
2023-12-11T11:57:42.093Z,8.57
2023-12-11T12:00:10.788Z,15.60
2023-12-11T12:02:38.892Z,14.70
2023-12-11T12:05:11.578Z,11.02
2023-12-11T12:07:42.245Z,11.40
2023-12-11T12:10:14.118Z,15.67
2023-12-11T12:12:42.110Z,10.73
2023-12-11T12:15:11.681Z,11.65
2023-12-11T12:17:40.522Z,17.17
2023-12-11T12:20:11.942Z,13.23
2023-12-11T12:22:42.892Z,13.37
2023-12-11T12:25:16.338Z,10.90
2023-12-11T12:27:45.266Z,15.03
2023-12-11T12:32:41.354Z,12.52
2023-12-11T12:35:10.855Z,13.48
2023-12-11T12:37:39.702Z,10.23
2023-12-11T12:40:10.764Z,15.75
2023-12-11T12:42:39.066Z,9.97
2023-12-11T12:45:08.514Z,13.82
2023-12-11T12:47:46.650Z,11.73
2023-12-11T12:50:21.368Z,15.70
2023-12-11T12:52:49.212Z,12.90
2023-12-11T12:55:18.758Z,12.13
2023-12-11T12:57:46.871Z,17.43
2023-12-11T13:00:21.505Z,14.75
2023-12-11T13:02:50.338Z,13.43
2023-12-11T13:07:59.144Z,10.13
2023-12-11T13:10:28.385Z,10.90
2023-12-11T13:12:56.189Z,11.77
2023-12-11T13:15:24.035Z,16.93
2023-12-11T13:17:54.890Z,11.93
2023-12-11T13:20:22.868Z,11.50
2023-12-11T13:22:50.730Z,9.32
2023-12-11T13:25:18.599Z,11.53
2023-12-11T13:27:48.529Z,10.05
2023-12-11T13:30:18.282Z,11.20
2023-12-11T13:32:46.133Z,8.87
2023-12-11T13:35:14.023Z,10.27
2023-12-11T13:37:41.766Z,17.35
2023-12-11T13:40:12.349Z,14.27
2023-12-11T13:42:40.929Z,16.90
2023-12-11T13:45:11.094Z,13.43
2023-12-11T13:47:39.623Z,22.07
2023-12-11T13:50:10.026Z,12.50
2023-12-11T13:52:37.885Z,13.43
2023-12-11T13:55:06.460Z,14.97
2023-12-11T13:57:34.921Z,8.70
2023-12-11T14:00:02.743Z,9.48
2023-12-11T14:02:59.145Z,11.88
2023-12-11T14:05:20.699Z,14.50
2023-12-11T14:10:18.095Z,11.43
2023-12-11T14:12:46.303Z,9.63
2023-12-11T14:15:14.060Z,11.10
2023-12-11T14:17:43.276Z,17.27
2023-12-11T14:20:12.911Z,10.60
2023-12-11T14:22:41.294Z,13.83
2023-12-11T14:25:10.191Z,13.95
2023-12-11T14:27:38.167Z,10.80
2023-12-11T14:30:06.999Z,8.97
2023-12-11T14:35:06.830Z,10.47
2023-12-11T14:37:35.066Z,9.50
2023-12-11T14:40:03.294Z,5.82
2023-12-11T14:42:32.361Z,8.07
2023-12-11T14:45:00.449Z,6.87
2023-12-11T14:47:28.570Z,11.05
2023-12-11T14:49:57.206Z,10.27
2023-12-11T14:52:27.318Z,7.07
2023-12-11T14:54:55.321Z,13.10
2023-12-11T14:57:23.104Z,11.60
2023-12-11T14:59:51.028Z,12.27
2023-12-11T15:02:19.031Z,7.40
2023-12-11T15:04:46.934Z,8.07
2023-12-11T15:07:14.656Z,9.80
2023-12-11T15:09:43.814Z,7.20
2023-12-11T15:12:11.595Z,9.93
2023-12-11T15:14:39.897Z,8.05
2023-12-11T15:17:07.649Z,9.32
2023-12-11T15:19:35.438Z,9.07
2023-12-11T15:22:03.348Z,11.07
2023-12-11T15:24:31.454Z,11.25
2023-12-11T15:27:00.616Z,15.13
2023-12-11T15:29:28.305Z,11.10
2023-12-11T15:31:56.632Z,7.87
2023-12-11T15:34:25.972Z,12.43
2023-12-11T15:36:53.917Z,9.93
2023-12-11T15:39:24.776Z,9.93
2023-12-11T15:41:52.612Z,9.97
2023-12-11T15:44:22.602Z,11.00
2023-12-11T15:46:50.562Z,10.80
2023-12-11T15:49:19.459Z,12.85
2023-12-11T15:51:52.674Z,9.40
2023-12-11T15:54:20.703Z,10.83
2023-12-11T15:56:48.637Z,13.07
2023-12-11T15:59:16.469Z,10.25
2023-12-11T16:01:46.628Z,19.17
2023-12-11T16:04:14.529Z,13.67
2023-12-11T16:06:42.397Z,14.38
2023-12-11T16:09:12.244Z,13.88
2023-12-11T16:11:40.645Z,22.93
2023-12-11T16:14:08.458Z,13.57
2023-12-11T16:16:38.463Z,13.43
2023-12-11T16:19:08.810Z,16.93
2023-12-11T16:21:39.135Z,14.63
2023-12-11T16:24:07.691Z,16.90
2023-12-11T16:26:35.737Z,16.55
2023-12-11T16:29:03.482Z,21.13
2023-12-11T16:31:31.678Z,16.40
2023-12-11T16:34:00.503Z,15.18
2023-12-11T16:36:30.327Z,13.57
2023-12-11T16:38:58.121Z,12.17
2023-12-11T16:41:26.993Z,17.67
2023-12-11T16:43:55.458Z,9.73
2023-12-11T16:46:23.331Z,19.63
2023-12-11T16:48:51.609Z,11.63
2023-12-11T16:51:19.622Z,15.77
2023-12-11T16:53:49.148Z,17.40
2023-12-11T16:56:17.104Z,12.80
2023-12-11T16:58:46.064Z,15.63
2023-12-11T17:01:14.850Z,15.23
2023-12-11T17:03:43.246Z,19.70
2023-12-11T17:06:16.226Z,17.77
2023-12-11T17:08:43.981Z,14.33
2023-12-11T17:11:13.436Z,12.50
2023-12-11T17:13:42.353Z,12.70
2023-12-11T17:16:10.608Z,15.00
2023-12-11T17:18:38.504Z,23.60
2023-12-11T17:21:08.343Z,15.45
2023-12-11T17:23:38.369Z,19.03
2023-12-11T17:26:06.604Z,33.13
2023-12-11T17:28:36.062Z,30.67
2023-12-11T17:31:03.901Z,38.73
2023-12-11T17:33:32.355Z,29.43
2023-12-11T17:36:00.217Z,41.47
2023-12-11T17:38:28.089Z,24.57
2023-12-11T17:40:55.821Z,24.15
2023-12-11T17:43:24.302Z,17.47
2023-12-11T17:45:53.496Z,24.08
2023-12-11T17:48:21.425Z,21.17
2023-12-11T17:50:49.574Z,19.13
2023-12-11T17:53:17.288Z,14.10
2023-12-11T17:55:45.245Z,19.80
2023-12-11T17:58:13.087Z,23.80
2023-12-11T18:00:40.842Z,17.42
2023-12-11T18:03:10.010Z,22.17
2023-12-11T18:05:39.423Z,17.70
2023-12-11T18:08:07.284Z,16.83
2023-12-11T18:10:35.141Z,13.87
2023-12-11T18:13:02.984Z,18.23
2023-12-11T18:15:31.095Z,22.27
2023-12-11T18:17:58.911Z,20.70
2023-12-11T18:20:28.109Z,18.58
2023-12-11T18:22:55.853Z,19.47
2023-12-11T18:25:23.950Z,24.10
2023-12-11T18:27:51.786Z,18.38
2023-12-11T18:30:19.682Z,24.50
2023-12-11T18:32:47.575Z,25.25
2023-12-11T18:35:15.525Z,21.90
2023-12-11T18:37:44.893Z,18.30
2023-12-11T18:40:15.021Z,20.47
2023-12-11T18:42:44.579Z,24.63
2023-12-11T18:45:13.036Z,20.27
2023-12-11T18:47:40.856Z,21.75
2023-12-11T18:50:09.230Z,16.70
2023-12-11T18:52:37.053Z,20.55
2023-12-11T18:55:06.970Z,17.30
2023-12-11T18:57:35.112Z,24.10
2023-12-11T19:00:02.967Z,22.30
2023-12-11T19:02:31.058Z,24.67
2023-12-11T19:04:58.947Z,27.23
2023-12-11T19:07:27.165Z,27.83
2023-12-11T19:09:55.036Z,32.38
2023-12-11T19:12:24.132Z,28.47
2023-12-11T19:14:51.915Z,28.43
2023-12-11T19:17:19.698Z,28.53
2023-12-11T19:19:47.512Z,28.30
2023-12-11T19:22:15.310Z,24.35
2023-12-11T19:24:43.141Z,31.50
2023-12-11T19:27:10.903Z,33.10
2023-12-11T19:29:40.233Z,32.37
2023-12-11T19:32:09.035Z,28.27
2023-12-11T19:34:36.975Z,27.33
2023-12-11T19:37:05.510Z,25.70
2023-12-11T19:39:33.391Z,28.10
2023-12-11T19:42:01.181Z,30.70
2023-12-11T19:44:29.026Z,24.17
2023-12-11T19:46:58.344Z,21.02
2023-12-11T19:49:27.959Z,27.00
2023-12-11T19:51:56.146Z,27.40
2023-12-11T19:54:23.905Z,24.17
2023-12-11T19:56:51.673Z,24.97
2023-12-11T19:59:20.210Z,24.77
2023-12-11T20:01:48.201Z,37.95
2023-12-11T20:04:17.802Z,27.42
2023-12-11T20:06:45.612Z,26.50
2023-12-11T20:09:13.822Z,30.07
2023-12-11T20:11:42.329Z,25.20
2023-12-11T20:14:10.102Z,29.75
2023-12-11T20:16:37.875Z,29.53
2023-12-11T20:19:05.785Z,29.17
2023-12-11T20:21:35.378Z,22.48
2023-12-11T20:24:03.129Z,25.57
2023-12-11T20:26:31.112Z,24.88
2023-12-11T20:28:59.622Z,26.73
2023-12-11T20:31:28.736Z,22.98
2023-12-11T20:33:56.636Z,27.77
2023-12-11T20:36:25.025Z,26.42
2023-12-11T20:38:54.961Z,18.33
2023-12-11T20:41:23.587Z,31.07
2023-12-11T20:43:52.617Z,22.98
2023-12-11T20:46:24.631Z,19.30
2023-12-11T20:48:53.770Z,20.67
2023-12-11T20:51:23.093Z,22.23
2023-12-11T20:53:52.753Z,21.53
2023-12-11T20:56:22.797Z,21.67
2023-12-11T20:58:51.527Z,17.77
2023-12-11T21:01:30.191Z,29.42
2023-12-11T21:03:59.638Z,19.93
2023-12-11T21:06:28.747Z,18.93
2023-12-11T21:08:57.151Z,20.53
2023-12-11T21:11:27.134Z,18.95
2023-12-11T21:13:55.002Z,17.77
2023-12-11T21:16:22.930Z,20.73
2023-12-11T21:18:51.787Z,14.70
2023-12-11T21:21:21.041Z,17.57
2023-12-11T21:23:49.350Z,19.80
2023-12-11T21:26:17.467Z,23.17
2023-12-11T21:28:47.336Z,18.40
2023-12-11T21:31:19.519Z,17.93
2023-12-11T21:33:47.520Z,18.43
2023-12-11T21:36:15.451Z,14.65
2023-12-11T21:38:45.191Z,20.20
2023-12-11T21:41:15.345Z,15.63
2023-12-11T21:43:44.347Z,15.63
2023-12-11T21:46:14.474Z,15.57
2023-12-11T21:48:44.829Z,19.57
2023-12-11T21:51:15.950Z,14.63
2023-12-11T21:53:44.378Z,19.63
2023-12-11T21:56:12.242Z,10.88
2023-12-11T21:58:40.178Z,11.10
2023-12-11T22:01:08.315Z,14.45
2023-12-11T22:03:37.890Z,13.07
2023-12-11T22:06:06.051Z,9.97
2023-12-11T22:08:33.778Z,12.13
2023-12-11T22:11:01.614Z,12.47
2023-12-11T22:13:30.147Z,12.63
2023-12-11T22:15:58.689Z,17.85
2023-12-11T22:18:26.816Z,10.35
2023-12-11T22:20:55.990Z,10.02
2023-12-11T22:23:23.812Z,11.93
2023-12-11T22:25:51.601Z,8.47
2023-12-11T22:28:19.400Z,17.30
2023-12-11T22:30:47.655Z,10.30
2023-12-11T22:33:15.435Z,10.38
2023-12-11T22:35:43.284Z,9.00
2023-12-11T22:38:13.235Z,6.50
2023-12-11T22:40:41.373Z,10.30
2023-12-11T22:43:09.215Z,8.70
2023-12-11T22:45:38.264Z,6.43
2023-12-11T22:48:07.191Z,9.70
2023-12-11T22:50:35.023Z,12.50
2023-12-11T22:53:02.883Z,9.13
2023-12-11T22:55:32.344Z,12.30
2023-12-11T22:58:06.403Z,10.37
2023-12-11T23:00:41.621Z,10.37
2023-12-11T23:03:09.602Z,8.30
2023-12-11T23:05:37.505Z,8.70
2023-12-11T23:08:05.748Z,11.77
2023-12-11T23:10:35.044Z,8.43
2023-12-11T23:13:04.253Z,10.47
2023-12-11T23:15:32.280Z,19.63
2023-12-11T23:18:00.101Z,11.38
2023-12-11T23:20:27.962Z,10.88
2023-12-11T23:22:56.532Z,8.50
2023-12-11T23:25:24.535Z,8.30
2023-12-11T23:27:53.722Z,11.18
2023-12-11T23:30:21.464Z,8.93
2023-12-11T23:32:49.275Z,10.30
2023-12-11T23:35:18.251Z,6.53
2023-12-11T23:37:47.989Z,10.20
2023-12-11T23:40:17.212Z,5.33
2023-12-11T23:42:45.644Z,8.00
2023-12-11T23:45:14.809Z,8.60
2023-12-11T23:47:43.043Z,10.13
2023-12-11T23:50:11.548Z,6.07
2023-12-11T23:52:39.424Z,7.45
2023-12-11T23:55:08.166Z,6.70
